Bellatrix — XUAB4 — position and weather

sailwx.info

Track history (hours):
 
Tides and Currents Weather Stations Pressure Air Temp Water Temp Dewpoint Dewpoint Depression Visibility Wind Speed Wind Dir Waves Ship Positions

Bellatrix

Last reported at 2014-Nov-15 07:34 UTC. Time now 2014-Nov-28 20:36 UTC.
Position N 45°05' E 036°30'.
Warning: this ship's position is 13 days out of date.

Length 114 m; draft 3.4 m.

Type: Cargo ship. MMSI: 515288000.

Date/timePositionNaut miles runAvg speedWind from/ knotsBaromVisibWave heightAir tempDewpointWater temp
2014-Nov-15 07:34N 45°05' E 036°30'6 6.2
2014-Nov-15 06:33N 44°59' E 036°29'6 6.3
2014-Nov-15 05:34N 44°57' E 036°21'6 6.3
2014-Nov-15 04:33N 44°55' E 036°12'55 6.1
2014-Nov-14 19:29N 44°36' E 034°59'5 5.5
2014-Nov-14 18:33N 44°33' E 034°53'6 5.8
2014-Nov-14 17:33N 44°30' E 034°46'6 6.1
2014-Nov-14 16:34N 44°27' E 034°39'6 6.3
2014-Nov-14 15:33N 44°23' E 034°32'6 6.4
2014-Nov-14 14:33N 44°20' E 034°24'278 6.8
2014-Nov-12 21:30N 41°17' E 029°39'7 7.8
2014-Nov-12 20:34N 41°16' E 029°29'7 7.4
2014-Nov-12 19:33N 41°16' E 029°19'24 5.5
2014-Nov-12 15:15N 40°57' E 028°60'2 3.4
2014-Nov-12 14:33N 40°57' E 028°56'2 0.2
2014-Nov-12 05:31N 40°59' E 028°55'  
Track history (hours):
 
Tides and Currents Weather Stations Pressure Air Temp Water Temp Dewpoint Dewpoint Depression Visibility Wind Speed Wind Dir Waves Ship Positions

Bellatrix

Last reported at 2014-Nov-15 07:34 UTC. Time now 2014-Nov-28 20:36 UTC.
Position N 45°05' E 036°30'.
Warning: this ship's position is 13 days out of date.

Length 114 m; draft 3.4 m.

Type: Cargo ship. MMSI: 515288000.

Date/timePositionNaut miles runAvg speedWind from/ knotsBaromVisibWave heightAir tempDewpointWater temp
2014-Nov-15 07:34N 45°05' E 036°30'6 6.2
2014-Nov-15 06:33N 44°59' E 036°29'6 6.3
2014-Nov-15 05:34N 44°57' E 036°21'6 6.3
2014-Nov-15 04:33N 44°55' E 036°12'55 6.1
2014-Nov-14 19:29N 44°36' E 034°59'5 5.5
2014-Nov-14 18:33N 44°33' E 034°53'6 5.8
2014-Nov-14 17:33N 44°30' E 034°46'6 6.1
2014-Nov-14 16:34N 44°27' E 034°39'6 6.3
2014-Nov-14 15:33N 44°23' E 034°32'6 6.4
2014-Nov-14 14:33N 44°20' E 034°24'278 6.8
2014-Nov-12 21:30N 41°17' E 029°39'7 7.8
2014-Nov-12 20:34N 41°16' E 029°29'7 7.4
2014-Nov-12 19:33N 41°16' E 029°19'24 5.5
2014-Nov-12 15:15N 40°57' E 028°60'2 3.4
2014-Nov-12 14:33N 40°57' E 028°56'2 0.2
2014-Nov-12 05:31N 40°59' E 028°55'  

Dump ship's entire track history